台北 の空港の天気 - METARとTAF

台湾桃園国際空港 ( RCTP / TPE ) - 台湾 台北市
飛行場実況気象(Metar)
観測時間08/26 03:00 CST (08/25 19:00 UTC)
風向・風速西北西 1m/s
視程10km以上
天気現象
少しの雲 雲底高度 370m
全天の4割程度の雲 雲底高度 2130m
気温27℃
湿度94%
気圧1008hPa
METARRCTP 251900Z 30002KT 9999 FEW012 SCT070 27/26 Q1008 NOSIG RMK A2977
過去の天気等 Google飛行場航空写真 Wunderground天気予報

過去48時間のMETAR

飛行場予報(TAF)
発表時間: 8/26 01:00 CST (8/25 17:00 UTC)
予報対象時間: 26日2時 CST ~ 27日8時 CST
風向・風速南南西 3m/s
視程10km以上
少しの雲 雲底高度 610m
全天の8割程度の雲 雲底高度 2440m
26日2時 CST ~ 26日6時 CST に一時的に
風向・風速東北東 3m/s
26日8時 CST ~ 26日10時 CST に徐々に
風向・風速北 3m/s
26日14時 CST ~ 26日18時 CST に一時的に
風向・風速東南東 3m/s
視程4000m
天気現象しゅう雨
全天の4割程度の雲 雲底高度 300m
少しの積乱雲 雲底高度 460m
全天の8割程度の雲 雲底高度 490m
全天の8割程度の雲 雲底高度 1520m
26日18時 CST ~ 26日20時 CST に徐々に
風向・風速南南西 3m/s
27日0時 CST ~ 27日6時 CST に一時的に
風向・風速南東 3m/s
TAF RCTP 251700Z 2518/2624 20005KT 9999 FEW020 BKN080
TEMPO 2518/2522 07005KT
BECMG 2600/2602 35005KT
TEMPO 2606/2610 12006KT 4000 SHRA SCT010 FEW015CB BKN016 BKN050
BECMG 2610/2612 20005KT
TEMPO 2616/2622 14005KT